Sv.knyaz Vladimir — UBKI2 — position and weather

sailwx.info

Track history (hours):
 
Tides and Currents Weather Stations Pressure Air Temp Water Temp Dewpoint Dewpoint Depression Visibility Wind Speed Wind Dir Waves Ship Positions

Sv.knyaz Vladimir

Last reported at 2017-Nov-19 20:40 UTC. Time now 2017-Nov-19 21:55 UTC.
Position N 45°08' E 036°32'.

Length 128 m; draft 3.9 m.

Type: Cargo ship. MMSI: 273350360.

Date/timePositionNaut miles runAvg speedWind from/ knotsBaromVisibWave heightAir tempDewpointWater temp
2017-Nov-19 20:40N 45°08' E 036°32'1 3.5
2017-Nov-19 20:30N 45°08' E 036°32'3 6.7
2017-Nov-19 20:00N 45°10' E 036°29'4 6.5
2017-Nov-19 19:22N 45°15' E 036°28'2 6.1
2017-Nov-19 19:00N 45°17' E 036°29'3 6.0
2017-Nov-19 18:30N 45°19' E 036°32'3 6.7
2017-Nov-19 18:00N 45°20' E 036°36'3 6.3
2017-Nov-19 17:30N 45°22' E 036°40'3 6.7
2017-Nov-19 17:00N 45°25' E 036°40'2 4.6
2017-Nov-19 16:30N 45°27' E 036°39'0 0.3
2017-Nov-19 15:55N 45°27' E 036°38'0 0.1
2017-Nov-19 15:28N 45°27' E 036°38'0 0.0
2017-Nov-19 14:58N 45°27' E 036°38'0 0.0
2017-Nov-19 14:28N 45°27' E 036°38'0 0.1
2017-Nov-19 13:58N 45°27' E 036°38'0 0.0
2017-Nov-19 13:25N 45°27' E 036°38'0 0.0
2017-Nov-19 12:58N 45°27' E 036°38'0 0.0
2017-Nov-19 12:28N 45°27' E 036°38'0 0.1
2017-Nov-19 11:58N 45°27' E 036°38'0 0.0
2017-Nov-19 11:28N 45°27' E 036°38'0 0.0
2017-Nov-19 10:58N 45°27' E 036°38'0 0.0
2017-Nov-19 10:28N 45°27' E 036°39'0 0.1
2017-Nov-19 09:58N 45°27' E 036°39'0 0.0
2017-Nov-19 09:28N 45°27' E 036°39'0 0.0
2017-Nov-19 08:58N 45°27' E 036°39'0 0.0
2017-Nov-19 08:28N 45°27' E 036°39'0 0.0
2017-Nov-19 07:58N 45°27' E 036°39'0 0.1
2017-Nov-19 07:28N 45°27' E 036°39'1 1.5
2017-Nov-19 07:00N 45°27' E 036°40'3 5.8
2017-Nov-19 06:29N 45°29' E 036°36'0 0.0
2017-Nov-19 05:45N 45°29' E 036°36'0 0.0
2017-Nov-19 05:30N 45°29' E 036°36'  
2017-Nov-16 15:58N 45°29' E 036°36'3 5.7
2017-Nov-16 15:30N 45°31' E 036°39'4 7.4
2017-Nov-16 15:00N 45°33' E 036°43'4 7.3
2017-Nov-16 14:30N 45°36' E 036°46'  
2017-Nov-10 14:46N 45°30' E 036°45'2 7.5
2017-Nov-10 14:30N 45°28' E 036°43'4 7.4
2017-Nov-10 14:00N 45°25' E 036°41'3 6.8
2017-Nov-10 13:30N 45°22' E 036°40'3 6.1
2017-Nov-10 13:00N 45°20' E 036°36'3 6.2
2017-Nov-10 12:30N 45°19' E 036°32'3 6.0
2017-Nov-10 12:00N 45°17' E 036°29'3 5.3
2017-Nov-10 11:30N 45°14' E 036°29'3 5.6
2017-Nov-10 10:58N 45°12' E 036°31'0 0.2
2017-Nov-10 10:21N 45°12' E 036°31'0 0.0
2017-Nov-10 09:57N 45°12' E 036°31'0 0.0
2017-Nov-10 09:30N 45°12' E 036°31'0 0.0
2017-Nov-10 08:54N 45°12' E 036°31'0 0.0
2017-Nov-10 08:30N 45°12' E 036°31'0 0.1
2017-Nov-10 08:00N 45°12' E 036°31'0 0.1
2017-Nov-10 07:30N 45°12' E 036°31'0 0.0
2017-Nov-10 07:00N 45°12' E 036°31'0 0.1
2017-Nov-10 06:30N 45°12' E 036°31'3 6.0
2017-Nov-10 06:00N 45°09' E 036°32'  
Track history (hours):
 
Tides and Currents Weather Stations Pressure Air Temp Water Temp Dewpoint Dewpoint Depression Visibility Wind Speed Wind Dir Waves Ship Positions

Sv.knyaz Vladimir

Last reported at 2017-Nov-19 20:40 UTC. Time now 2017-Nov-19 21:55 UTC.
Position N 45°08' E 036°32'.

Length 128 m; draft 3.9 m.

Type: Cargo ship. MMSI: 273350360.

Date/timePositionNaut miles runAvg speedWind from/ knotsBaromVisibWave heightAir tempDewpointWater temp
2017-Nov-19 20:40N 45°08' E 036°32'1 3.5
2017-Nov-19 20:30N 45°08' E 036°32'3 6.7
2017-Nov-19 20:00N 45°10' E 036°29'4 6.5
2017-Nov-19 19:22N 45°15' E 036°28'2 6.1
2017-Nov-19 19:00N 45°17' E 036°29'3 6.0
2017-Nov-19 18:30N 45°19' E 036°32'3 6.7
2017-Nov-19 18:00N 45°20' E 036°36'3 6.3
2017-Nov-19 17:30N 45°22' E 036°40'3 6.7
2017-Nov-19 17:00N 45°25' E 036°40'2 4.6
2017-Nov-19 16:30N 45°27' E 036°39'0 0.3
2017-Nov-19 15:55N 45°27' E 036°38'0 0.1
2017-Nov-19 15:28N 45°27' E 036°38'0 0.0
2017-Nov-19 14:58N 45°27' E 036°38'0 0.0
2017-Nov-19 14:28N 45°27' E 036°38'0 0.1
2017-Nov-19 13:58N 45°27' E 036°38'0 0.0
2017-Nov-19 13:25N 45°27' E 036°38'0 0.0
2017-Nov-19 12:58N 45°27' E 036°38'0 0.0
2017-Nov-19 12:28N 45°27' E 036°38'0 0.1
2017-Nov-19 11:58N 45°27' E 036°38'0 0.0
2017-Nov-19 11:28N 45°27' E 036°38'0 0.0
2017-Nov-19 10:58N 45°27' E 036°38'0 0.0
2017-Nov-19 10:28N 45°27' E 036°39'0 0.1
2017-Nov-19 09:58N 45°27' E 036°39'0 0.0
2017-Nov-19 09:28N 45°27' E 036°39'0 0.0
2017-Nov-19 08:58N 45°27' E 036°39'0 0.0
2017-Nov-19 08:28N 45°27' E 036°39'0 0.0
2017-Nov-19 07:58N 45°27' E 036°39'0 0.1
2017-Nov-19 07:28N 45°27' E 036°39'1 1.5
2017-Nov-19 07:00N 45°27' E 036°40'3 5.8
2017-Nov-19 06:29N 45°29' E 036°36'0 0.0
2017-Nov-19 05:45N 45°29' E 036°36'0 0.0
2017-Nov-19 05:30N 45°29' E 036°36'  
2017-Nov-16 15:58N 45°29' E 036°36'3 5.7
2017-Nov-16 15:30N 45°31' E 036°39'4 7.4
2017-Nov-16 15:00N 45°33' E 036°43'4 7.3
2017-Nov-16 14:30N 45°36' E 036°46'  
2017-Nov-10 14:46N 45°30' E 036°45'2 7.5
2017-Nov-10 14:30N 45°28' E 036°43'4 7.4
2017-Nov-10 14:00N 45°25' E 036°41'3 6.8
2017-Nov-10 13:30N 45°22' E 036°40'3 6.1
2017-Nov-10 13:00N 45°20' E 036°36'3 6.2
2017-Nov-10 12:30N 45°19' E 036°32'3 6.0
2017-Nov-10 12:00N 45°17' E 036°29'3 5.3
2017-Nov-10 11:30N 45°14' E 036°29'3 5.6
2017-Nov-10 10:58N 45°12' E 036°31'0 0.2
2017-Nov-10 10:21N 45°12' E 036°31'0 0.0
2017-Nov-10 09:57N 45°12' E 036°31'0 0.0
2017-Nov-10 09:30N 45°12' E 036°31'0 0.0
2017-Nov-10 08:54N 45°12' E 036°31'0 0.0
2017-Nov-10 08:30N 45°12' E 036°31'0 0.1
2017-Nov-10 08:00N 45°12' E 036°31'0 0.1
2017-Nov-10 07:30N 45°12' E 036°31'0 0.0
2017-Nov-10 07:00N 45°12' E 036°31'0 0.1
2017-Nov-10 06:30N 45°12' E 036°31'3 6.0
2017-Nov-10 06:00N 45°09' E 036°32'  

Dump ship's entire track history